sensor_id;sensor_type;location;lat;lon;timestamp;P1;durP1;ratioP1;P2;durP2;ratioP2
30553;SDS011;17335;50.720;7.452;2023-07-09T00:01:42;11.35;;;4.30;;
30553;SDS011;17335;50.720;7.452;2023-07-09T00:04:10;8.60;;;4.15;;
30553;SDS011;17335;50.720;7.452;2023-07-09T00:06:37;8.65;;;4.25;;
30553;SDS011;17335;50.720;7.452;2023-07-09T00:09:08;9.68;;;4.47;;
30553;SDS011;17335;50.720;7.452;2023-07-09T00:11:41;9.55;;;4.63;;
30553;SDS011;17335;50.720;7.452;2023-07-09T00:14:13;13.88;;;4.78;;
30553;SDS011;17335;50.720;7.452;2023-07-09T00:16:42;8.98;;;4.35;;
30553;SDS011;17335;50.720;7.452;2023-07-09T00:19:11;11.77;;;4.20;;
30553;SDS011;17335;50.720;7.452;2023-07-09T00:21:43;7.68;;;4.13;;
30553;SDS011;17335;50.720;7.452;2023-07-09T00:24:12;7.45;;;4.30;;
30553;SDS011;17335;50.720;7.452;2023-07-09T00:26:39;8.48;;;4.50;;
30553;SDS011;17335;50.720;7.452;2023-07-09T00:29:10;8.55;;;4.60;;
30553;SDS011;17335;50.720;7.452;2023-07-09T00:31:38;9.48;;;4.65;;
30553;SDS011;17335;50.720;7.452;2023-07-09T00:34:10;9.73;;;3.83;;
30553;SDS011;17335;50.720;7.452;2023-07-09T00:36:39;10.32;;;4.45;;
30553;SDS011;17335;50.720;7.452;2023-07-09T00:39:17;10.77;;;4.35;;
30553;SDS011;17335;50.720;7.452;2023-07-09T00:41:49;9.60;;;4.78;;
30553;SDS011;17335;50.720;7.452;2023-07-09T00:49:15;10.25;;;4.65;;
30553;SDS011;17335;50.720;7.452;2023-07-09T00:51:48;9.27;;;5.13;;
30553;SDS011;17335;50.720;7.452;2023-07-09T00:54:21;9.00;;;4.85;;
30553;SDS011;17335;50.720;7.452;2023-07-09T00:56:57;10.35;;;5.07;;
30553;SDS011;17335;50.720;7.452;2023-07-09T00:59:28;9.02;;;4.63;;
30553;SDS011;17335;50.720;7.452;2023-07-09T01:01:57;9.30;;;4.53;;
30553;SDS011;17335;50.720;7.452;2023-07-09T01:04:27;11.57;;;4.28;;
30553;SDS011;17335;50.720;7.452;2023-07-09T01:06:55;13.32;;;4.72;;
30553;SDS011;17335;50.720;7.452;2023-07-09T01:09:23;11.25;;;4.70;;
30553;SDS011;17335;50.720;7.452;2023-07-09T01:11:51;10.60;;;4.70;;
30553;SDS011;17335;50.720;7.452;2023-07-09T01:14:19;8.07;;;4.43;;
30553;SDS011;17335;50.720;7.452;2023-07-09T01:16:49;8.63;;;4.80;;
30553;SDS011;17335;50.720;7.452;2023-07-09T01:19:24;10.00;;;4.32;;
30553;SDS011;17335;50.720;7.452;2023-07-09T01:21:55;9.40;;;4.68;;
30553;SDS011;17335;50.720;7.452;2023-07-09T01:27:23;7.75;;;4.07;;
30553;SDS011;17335;50.720;7.452;2023-07-09T01:29:53;9.15;;;4.65;;
30553;SDS011;17335;50.720;7.452;2023-07-09T01:32:21;8.98;;;4.78;;
30553;SDS011;17335;50.720;7.452;2023-07-09T01:34:50;9.40;;;4.75;;
30553;SDS011;17335;50.720;7.452;2023-07-09T01:37:22;8.93;;;5.13;;
30553;SDS011;17335;50.720;7.452;2023-07-09T01:39:51;8.75;;;4.55;;
30553;SDS011;17335;50.720;7.452;2023-07-09T01:42:19;9.98;;;5.03;;
30553;SDS011;17335;50.720;7.452;2023-07-09T01:44:48;9.52;;;4.70;;
30553;SDS011;17335;50.720;7.452;2023-07-09T01:47:16;13.57;;;4.15;;
30553;SDS011;17335;50.720;7.452;2023-07-09T01:49:44;10.70;;;4.32;;
30553;SDS011;17335;50.720;7.452;2023-07-09T01:52:16;9.13;;;4.43;;
30553;SDS011;17335;50.720;7.452;2023-07-09T01:54:45;9.20;;;4.50;;
30553;SDS011;17335;50.720;7.452;2023-07-09T01:57:19;11.05;;;4.30;;
30553;SDS011;17335;50.720;7.452;2023-07-09T01:59:50;9.55;;;4.82;;
30553;SDS011;17335;50.720;7.452;2023-07-09T02:02:21;12.15;;;4.40;;
30553;SDS011;17335;50.720;7.452;2023-07-09T02:04:49;9.15;;;4.03;;
30553;SDS011;17335;50.720;7.452;2023-07-09T02:07:18;11.10;;;4.20;;
30553;SDS011;17335;50.720;7.452;2023-07-09T02:09:46;10.63;;;4.55;;
30553;SDS011;17335;50.720;7.452;2023-07-09T02:12:13;9.55;;;4.40;;
30553;SDS011;17335;50.720;7.452;2023-07-09T02:14:42;9.32;;;4.82;;
30553;SDS011;17335;50.720;7.452;2023-07-09T02:17:10;9.35;;;4.90;;
30553;SDS011;17335;50.720;7.452;2023-07-09T02:19:38;11.30;;;4.28;;
30553;SDS011;17335;50.720;7.452;2023-07-09T02:22:06;10.55;;;4.50;;
30553;SDS011;17335;50.720;7.452;2023-07-09T02:24:33;7.78;;;3.95;;
30553;SDS011;17335;50.720;7.452;2023-07-09T02:27:01;11.52;;;4.78;;
30553;SDS011;17335;50.720;7.452;2023-07-09T02:29:30;8.90;;;4.38;;
30553;SDS011;17335;50.720;7.452;2023-07-09T02:31:57;9.95;;;4.22;;
30553;SDS011;17335;50.720;7.452;2023-07-09T02:34:25;9.07;;;4.38;;
30553;SDS011;17335;50.720;7.452;2023-07-09T02:36:53;11.27;;;4.72;;
30553;SDS011;17335;50.720;7.452;2023-07-09T02:39:21;8.48;;;4.63;;
30553;SDS011;17335;50.720;7.452;2023-07-09T02:41:48;11.23;;;4.97;;
30553;SDS011;17335;50.720;7.452;2023-07-09T02:44:15;7.93;;;5.00;;
30553;SDS011;17335;50.720;7.452;2023-07-09T02:46:43;10.13;;;4.22;;
30553;SDS011;17335;50.720;7.452;2023-07-09T02:49:10;8.07;;;4.15;;
30553;SDS011;17335;50.720;7.452;2023-07-09T02:51:39;11.40;;;4.80;;
30553;SDS011;17335;50.720;7.452;2023-07-09T02:54:06;10.80;;;4.30;;
30553;SDS011;17335;50.720;7.452;2023-07-09T02:56:33;12.05;;;4.72;;
30553;SDS011;17335;50.720;7.452;2023-07-09T02:58:59;7.78;;;4.30;;
30553;SDS011;17335;50.720;7.452;2023-07-09T03:01:26;7.80;;;3.90;;
30553;SDS011;17335;50.720;7.452;2023-07-09T03:03:53;9.60;;;4.70;;
30553;SDS011;17335;50.720;7.452;2023-07-09T03:06:21;9.20;;;4.03;;
30553;SDS011;17335;50.720;7.452;2023-07-09T03:08:51;9.32;;;4.35;;
30553;SDS011;17335;50.720;7.452;2023-07-09T03:11:18;11.65;;;4.70;;
30553;SDS011;17335;50.720;7.452;2023-07-09T03:13:47;11.55;;;4.57;;
30553;SDS011;17335;50.720;7.452;2023-07-09T03:16:14;13.25;;;4.40;;
30553;SDS011;17335;50.720;7.452;2023-07-09T03:18:42;8.60;;;4.20;;
30553;SDS011;17335;50.720;7.452;2023-07-09T03:21:09;9.30;;;4.20;;
30553;SDS011;17335;50.720;7.452;2023-07-09T03:23:35;9.18;;;4.78;;
30553;SDS011;17335;50.720;7.452;2023-07-09T03:26:02;8.25;;;4.68;;
30553;SDS011;17335;50.720;7.452;2023-07-09T03:28:31;12.77;;;4.25;;
30553;SDS011;17335;50.720;7.452;2023-07-09T03:30:58;11.30;;;4.80;;
30553;SDS011;17335;50.720;7.452;2023-07-09T03:33:25;11.77;;;4.68;;
30553;SDS011;17335;50.720;7.452;2023-07-09T03:35:52;10.27;;;4.32;;
30553;SDS011;17335;50.720;7.452;2023-07-09T03:38:19;13.10;;;4.28;;
30553;SDS011;17335;50.720;7.452;2023-07-09T03:40:49;11.00;;;5.07;;
30553;SDS011;17335;50.720;7.452;2023-07-09T03:43:16;9.10;;;4.55;;
30553;SDS011;17335;50.720;7.452;2023-07-09T03:45:43;12.20;;;5.03;;
30553;SDS011;17335;50.720;7.452;2023-07-09T03:48:11;9.52;;;4.50;;
30553;SDS011;17335;50.720;7.452;2023-07-09T03:50:38;7.57;;;4.40;;
30553;SDS011;17335;50.720;7.452;2023-07-09T03:53:04;7.72;;;4.60;;
30553;SDS011;17335;50.720;7.452;2023-07-09T03:55:32;9.52;;;4.05;;
30553;SDS011;17335;50.720;7.452;2023-07-09T03:57:59;8.27;;;4.15;;
30553;SDS011;17335;50.720;7.452;2023-07-09T04:00:25;8.68;;;4.47;;
30553;SDS011;17335;50.720;7.452;2023-07-09T04:02:52;8.48;;;4.75;;
30553;SDS011;17335;50.720;7.452;2023-07-09T04:05:18;8.48;;;4.68;;
30553;SDS011;17335;50.720;7.452;2023-07-09T04:07:45;9.40;;;4.65;;
30553;SDS011;17335;50.720;7.452;2023-07-09T04:10:13;9.20;;;4.63;;
30553;SDS011;17335;50.720;7.452;2023-07-09T04:12:40;9.82;;;4.63;;
30553;SDS011;17335;50.720;7.452;2023-07-09T04:15:09;9.88;;;4.60;;
30553;SDS011;17335;50.720;7.452;2023-07-09T04:17:35;10.52;;;4.88;;
30553;SDS011;17335;50.720;7.452;2023-07-09T04:20:02;8.68;;;4.70;;
30553;SDS011;17335;50.720;7.452;2023-07-09T04:22:32;10.02;;;4.80;;
30553;SDS011;17335;50.720;7.452;2023-07-09T04:24:58;7.82;;;4.70;;
30553;SDS011;17335;50.720;7.452;2023-07-09T04:27:25;8.63;;;4.53;;
30553;SDS011;17335;50.720;7.452;2023-07-09T04:29:55;10.27;;;4.80;;
30553;SDS011;17335;50.720;7.452;2023-07-09T04:32:21;10.32;;;5.13;;
30553;SDS011;17335;50.720;7.452;2023-07-09T04:34:48;8.32;;;4.45;;
30553;SDS011;17335;50.720;7.452;2023-07-09T04:37:15;9.63;;;4.45;;
30553;SDS011;17335;50.720;7.452;2023-07-09T04:39:45;9.00;;;4.63;;
30553;SDS011;17335;50.720;7.452;2023-07-09T04:42:14;8.98;;;4.32;;
30553;SDS011;17335;50.720;7.452;2023-07-09T04:44:44;8.98;;;4.50;;
30553;SDS011;17335;50.720;7.452;2023-07-09T04:47:11;7.82;;;4.88;;
30553;SDS011;17335;50.720;7.452;2023-07-09T04:49:42;12.05;;;5.25;;
30553;SDS011;17335;50.720;7.452;2023-07-09T04:52:08;9.63;;;4.80;;
30553;SDS011;17335;50.720;7.452;2023-07-09T04:54:41;8.57;;;4.50;;
30553;SDS011;17335;50.720;7.452;2023-07-09T04:57:11;8.75;;;4.95;;
30553;SDS011;17335;50.720;7.452;2023-07-09T04:59:38;12.07;;;5.05;;
30553;SDS011;17335;50.720;7.452;2023-07-09T05:02:05;10.88;;;4.60;;
30553;SDS011;17335;50.720;7.452;2023-07-09T05:04:33;10.25;;;4.80;;
30553;SDS011;17335;50.720;7.452;2023-07-09T05:07:00;9.13;;;4.57;;
30553;SDS011;17335;50.720;7.452;2023-07-09T05:09:26;7.72;;;3.80;;
30553;SDS011;17335;50.720;7.452;2023-07-09T05:11:53;9.80;;;5.28;;
30553;SDS011;17335;50.720;7.452;2023-07-09T05:14:20;11.35;;;4.68;;
30553;SDS011;17335;50.720;7.452;2023-07-09T05:16:46;12.82;;;5.07;;
30553;SDS011;17335;50.720;7.452;2023-07-09T05:19:13;9.80;;;4.80;;
30553;SDS011;17335;50.720;7.452;2023-07-09T05:21:39;12.48;;;4.75;;
30553;SDS011;17335;50.720;7.452;2023-07-09T05:24:06;9.38;;;4.95;;
30553;SDS011;17335;50.720;7.452;2023-07-09T05:26:33;10.75;;;5.28;;
30553;SDS011;17335;50.720;7.452;2023-07-09T05:29:01;9.07;;;4.90;;
30553;SDS011;17335;50.720;7.452;2023-07-09T05:31:28;10.60;;;4.00;;
30553;SDS011;17335;50.720;7.452;2023-07-09T05:33:55;12.55;;;4.88;;
30553;SDS011;17335;50.720;7.452;2023-07-09T05:36:22;7.53;;;4.68;;
30553;SDS011;17335;50.720;7.452;2023-07-09T05:38:48;7.88;;;4.75;;
30553;SDS011;17335;50.720;7.452;2023-07-09T05:41:16;10.52;;;4.82;;
30553;SDS011;17335;50.720;7.452;2023-07-09T05:43:43;9.18;;;4.68;;
30553;SDS011;17335;50.720;7.452;2023-07-09T05:46:11;9.32;;;4.95;;
30553;SDS011;17335;50.720;7.452;2023-07-09T05:48:39;8.35;;;4.22;;
30553;SDS011;17335;50.720;7.452;2023-07-09T05:51:05;11.00;;;5.20;;
30553;SDS011;17335;50.720;7.452;2023-07-09T05:53:32;9.25;;;4.50;;
30553;SDS011;17335;50.720;7.452;2023-07-09T05:55:59;8.48;;;4.70;;
30553;SDS011;17335;50.720;7.452;2023-07-09T05:58:27;7.50;;;4.07;;
30553;SDS011;17335;50.720;7.452;2023-07-09T06:00:54;12.10;;;4.55;;
30553;SDS011;17335;50.720;7.452;2023-07-09T06:03:23;9.18;;;4.57;;
30553;SDS011;17335;50.720;7.452;2023-07-09T06:05:52;12.45;;;4.97;;
30553;SDS011;17335;50.720;7.452;2023-07-09T06:08:20;8.30;;;4.40;;
30553;SDS011;17335;50.720;7.452;2023-07-09T06:10:57;8.07;;;4.20;;
30553;SDS011;17335;50.720;7.452;2023-07-09T06:13:30;7.25;;;3.95;;
30553;SDS011;17335;50.720;7.452;2023-07-09T06:15:58;7.15;;;4.50;;
30553;SDS011;17335;50.720;7.452;2023-07-09T06:18:26;8.73;;;4.70;;
30553;SDS011;17335;50.720;7.452;2023-07-09T06:20:57;7.15;;;4.07;;
30553;SDS011;17335;50.720;7.452;2023-07-09T06:23:25;8.05;;;4.10;;
30553;SDS011;17335;50.720;7.452;2023-07-09T06:25:52;10.93;;;4.13;;
30553;SDS011;17335;50.720;7.452;2023-07-09T06:28:20;7.00;;;3.92;;
30553;SDS011;17335;50.720;7.452;2023-07-09T06:30:49;6.63;;;3.60;;
30553;SDS011;17335;50.720;7.452;2023-07-09T06:33:16;7.10;;;3.80;;
30553;SDS011;17335;50.720;7.452;2023-07-09T06:35:53;7.07;;;3.60;;
30553;SDS011;17335;50.720;7.452;2023-07-09T06:38:21;8.88;;;3.95;;
30553;SDS011;17335;50.720;7.452;2023-07-09T06:40:48;10.52;;;4.10;;
30553;SDS011;17335;50.720;7.452;2023-07-09T06:43:16;6.18;;;3.88;;
30553;SDS011;17335;50.720;7.452;2023-07-09T06:46:18;6.72;;;3.67;;
30553;SDS011;17335;50.720;7.452;2023-07-09T06:48:38;7.07;;;3.88;;
30553;SDS011;17335;50.720;7.452;2023-07-09T06:51:04;8.45;;;4.03;;
30553;SDS011;17335;50.720;7.452;2023-07-09T06:53:31;8.70;;;3.88;;
30553;SDS011;17335;50.720;7.452;2023-07-09T06:55:58;11.43;;;3.78;;
30553;SDS011;17335;50.720;7.452;2023-07-09T06:58:27;9.77;;;4.10;;
30553;SDS011;17335;50.720;7.452;2023-07-09T07:00:54;7.45;;;3.70;;
30553;SDS011;17335;50.720;7.452;2023-07-09T07:03:22;7.25;;;3.92;;
30553;SDS011;17335;50.720;7.452;2023-07-09T07:05:51;9.07;;;3.42;;
30553;SDS011;17335;50.720;7.452;2023-07-09T07:08:23;7.53;;;3.60;;
30553;SDS011;17335;50.720;7.452;2023-07-09T07:10:55;8.55;;;3.80;;
30553;SDS011;17335;50.720;7.452;2023-07-09T07:13:29;8.27;;;3.95;;
30553;SDS011;17335;50.720;7.452;2023-07-09T07:16:04;6.30;;;3.30;;
30553;SDS011;17335;50.720;7.452;2023-07-09T07:18:33;8.40;;;3.78;;
30553;SDS011;17335;50.720;7.452;2023-07-09T07:21:00;8.02;;;3.47;;
30553;SDS011;17335;50.720;7.452;2023-07-09T07:23:27;8.10;;;4.43;;
30553;SDS011;17335;50.720;7.452;2023-07-09T07:25:54;8.45;;;3.50;;
30553;SDS011;17335;50.720;7.452;2023-07-09T07:28:21;9.00;;;3.53;;
30553;SDS011;17335;50.720;7.452;2023-07-09T07:30:59;9.05;;;3.75;;
30553;SDS011;17335;50.720;7.452;2023-07-09T07:33:27;7.82;;;3.78;;
30553;SDS011;17335;50.720;7.452;2023-07-09T07:35:53;7.35;;;3.38;;
30553;SDS011;17335;50.720;7.452;2023-07-09T07:38:40;11.75;;;3.78;;
30553;SDS011;17335;50.720;7.452;2023-07-09T07:41:06;9.10;;;3.55;;
30553;SDS011;17335;50.720;7.452;2023-07-09T07:43:33;9.80;;;3.63;;
30553;SDS011;17335;50.720;7.452;2023-07-09T07:46:00;8.65;;;4.03;;
30553;SDS011;17335;50.720;7.452;2023-07-09T07:48:26;7.65;;;3.97;;
30553;SDS011;17335;50.720;7.452;2023-07-09T07:50:58;7.38;;;3.58;;
30553;SDS011;17335;50.720;7.452;2023-07-09T07:53:26;7.82;;;3.65;;
30553;SDS011;17335;50.720;7.452;2023-07-09T07:55:55;7.15;;;3.75;;
30553;SDS011;17335;50.720;7.452;2023-07-09T07:58:23;9.23;;;3.55;;
30553;SDS011;17335;50.720;7.452;2023-07-09T08:00:49;6.88;;;3.30;;
30553;SDS011;17335;50.720;7.452;2023-07-09T08:03:20;9.63;;;3.67;;
30553;SDS011;17335;50.720;7.452;2023-07-09T08:05:50;6.70;;;3.40;;
30553;SDS011;17335;50.720;7.452;2023-07-09T08:08:16;7.20;;;3.58;;
30553;SDS011;17335;50.720;7.452;2023-07-09T08:10:43;6.25;;;3.50;;
30553;SDS011;17335;50.720;7.452;2023-07-09T08:13:10;7.75;;;3.58;;
30553;SDS011;17335;50.720;7.452;2023-07-09T08:15:37;6.85;;;3.33;;
30553;SDS011;17335;50.720;7.452;2023-07-09T08:18:03;8.63;;;3.20;;
30553;SDS011;17335;50.720;7.452;2023-07-09T08:20:30;11.98;;;4.03;;
30553;SDS011;17335;50.720;7.452;2023-07-09T08:22:59;6.72;;;3.35;;
30553;SDS011;17335;50.720;7.452;2023-07-09T08:25:26;7.70;;;3.65;;
30553;SDS011;17335;50.720;7.452;2023-07-09T08:27:52;5.22;;;3.42;;
30553;SDS011;17335;50.720;7.452;2023-07-09T08:30:19;8.88;;;3.70;;
30553;SDS011;17335;50.720;7.452;2023-07-09T08:32:45;11.18;;;3.90;;
30553;SDS011;17335;50.720;7.452;2023-07-09T08:35:12;6.75;;;3.70;;
30553;SDS011;17335;50.720;7.452;2023-07-09T08:37:59;10.55;;;3.60;;
30553;SDS011;17335;50.720;7.452;2023-07-09T08:40:26;10.10;;;3.75;;
30553;SDS011;17335;50.720;7.452;2023-07-09T08:42:55;7.65;;;3.30;;
30553;SDS011;17335;50.720;7.452;2023-07-09T08:47:59;7.80;;;3.50;;
30553;SDS011;17335;50.720;7.452;2023-07-09T08:50:38;8.10;;;3.45;;
30553;SDS011;17335;50.720;7.452;2023-07-09T08:53:13;5.10;;;3.25;;
30553;SDS011;17335;50.720;7.452;2023-07-09T08:55:47;8.18;;;3.65;;
30553;SDS011;17335;50.720;7.452;2023-07-09T08:58:26;8.40;;;3.85;;
30553;SDS011;17335;50.720;7.452;2023-07-09T09:00:56;7.05;;;3.90;;
30553;SDS011;17335;50.720;7.452;2023-07-09T09:03:29;8.48;;;3.90;;
30553;SDS011;17335;50.720;7.452;2023-07-09T09:06:17;6.85;;;3.30;;
30553;SDS011;17335;50.720;7.452;2023-07-09T09:12:08;6.65;;;3.35;;
30553;SDS011;17335;50.720;7.452;2023-07-09T09:14:41;6.95;;;3.47;;
30553;SDS011;17335;50.720;7.452;2023-07-09T09:17:13;12.10;;;4.00;;
30553;SDS011;17335;50.720;7.452;2023-07-09T09:19:56;6.03;;;3.50;;
30553;SDS011;17335;50.720;7.452;2023-07-09T09:22:27;8.50;;;3.90;;
30553;SDS011;17335;50.720;7.452;2023-07-09T09:25:02;7.32;;;3.00;;
30553;SDS011;17335;50.720;7.452;2023-07-09T09:27:30;7.28;;;3.67;;
30553;SDS011;17335;50.720;7.452;2023-07-09T09:29:57;9.18;;;3.63;;
30553;SDS011;17335;50.720;7.452;2023-07-09T09:34:54;7.40;;;3.60;;
30553;SDS011;17335;50.720;7.452;2023-07-09T09:39:53;7.93;;;4.35;;
30553;SDS011;17335;50.720;7.452;2023-07-09T09:42:40;6.50;;;3.55;;
30553;SDS011;17335;50.720;7.452;2023-07-09T09:45:13;6.47;;;3.53;;
30553;SDS011;17335;50.720;7.452;2023-07-09T09:47:43;7.38;;;3.47;;
30553;SDS011;17335;50.720;7.452;2023-07-09T09:50:15;7.88;;;3.45;;
30553;SDS011;17335;50.720;7.452;2023-07-09T09:52:47;10.27;;;3.97;;
30553;SDS011;17335;50.720;7.452;2023-07-09T09:57:47;7.85;;;3.92;;
30553;SDS011;17335;50.720;7.452;2023-07-09T10:00:16;7.63;;;3.58;;
30553;SDS011;17335;50.720;7.452;2023-07-09T10:02:44;6.18;;;3.65;;
30553;SDS011;17335;50.720;7.452;2023-07-09T10:05:15;6.00;;;3.42;;
30553;SDS011;17335;50.720;7.452;2023-07-09T10:07:58;4.97;;;3.15;;
30553;SDS011;17335;50.720;7.452;2023-07-09T10:10:30;7.65;;;3.60;;
30553;SDS011;17335;50.720;7.452;2023-07-09T10:13:20;7.82;;;3.78;;
30553;SDS011;17335;50.720;7.452;2023-07-09T10:16:01;5.72;;;3.00;;
30553;SDS011;17335;50.720;7.452;2023-07-09T10:18:41;7.25;;;3.53;;
30553;SDS011;17335;50.720;7.452;2023-07-09T10:26:30;7.55;;;3.28;;
30553;SDS011;17335;50.720;7.452;2023-07-09T10:34:55;7.25;;;2.85;;
30553;SDS011;17335;50.720;7.452;2023-07-09T10:40:09;7.40;;;3.80;;
30553;SDS011;17335;50.720;7.452;2023-07-09T10:45:22;7.03;;;3.42;;
30553;SDS011;17335;50.720;7.452;2023-07-09T10:48:16;8.35;;;3.53;;
30553;SDS011;17335;50.720;7.452;2023-07-09T10:50:52;7.43;;;3.35;;
30553;SDS011;17335;50.720;7.452;2023-07-09T10:58:38;5.88;;;3.42;;
30553;SDS011;17335;50.720;7.452;2023-07-09T11:01:11;5.30;;;2.92;;
30553;SDS011;17335;50.720;7.452;2023-07-09T11:03:54;5.78;;;3.20;;
30553;SDS011;17335;50.720;7.452;2023-07-09T11:06:45;6.10;;;3.10;;
30553;SDS011;17335;50.720;7.452;2023-07-09T11:09:26;7.47;;;2.97;;
30553;SDS011;17335;50.720;7.452;2023-07-09T11:11:58;5.60;;;3.05;;
30553;SDS011;17335;50.720;7.452;2023-07-09T11:14:34;4.82;;;2.75;;
30553;SDS011;17335;50.720;7.452;2023-07-09T11:17:05;7.68;;;2.92;;
30553;SDS011;17335;50.720;7.452;2023-07-09T11:19:42;6.53;;;3.00;;
30553;SDS011;17335;50.720;7.452;2023-07-09T11:22:16;5.43;;;3.00;;
30553;SDS011;17335;50.720;7.452;2023-07-09T11:24:52;6.43;;;3.05;;
30553;SDS011;17335;50.720;7.452;2023-07-09T11:30:18;7.10;;;2.80;;
30553;SDS011;17335;50.720;7.452;2023-07-09T11:33:03;7.25;;;3.10;;
30553;SDS011;17335;50.720;7.452;2023-07-09T11:35:50;5.18;;;2.67;;
30553;SDS011;17335;50.720;7.452;2023-07-09T11:38:19;5.82;;;3.10;;
30553;SDS011;17335;50.720;7.452;2023-07-09T11:40:51;8.00;;;3.10;;
30553;SDS011;17335;50.720;7.452;2023-07-09T11:43:26;9.20;;;3.05;;
30553;SDS011;17335;50.720;7.452;2023-07-09T11:45:56;6.70;;;3.00;;
30553;SDS011;17335;50.720;7.452;2023-07-09T11:48:40;6.57;;;3.05;;
30553;SDS011;17335;50.720;7.452;2023-07-09T11:51:10;5.07;;;2.67;;
30553;SDS011;17335;50.720;7.452;2023-07-09T11:53:53;5.05;;;2.72;;
30553;SDS011;17335;50.720;7.452;2023-07-09T11:56:21;6.95;;;3.10;;
30553;SDS011;17335;50.720;7.452;2023-07-09T11:58:51;9.85;;;3.42;;
30553;SDS011;17335;50.720;7.452;2023-07-09T12:01:20;4.97;;;2.72;;
30553;SDS011;17335;50.720;7.452;2023-07-09T12:03:49;7.90;;;2.90;;
30553;SDS011;17335;50.720;7.452;2023-07-09T12:06:21;8.82;;;3.10;;
30553;SDS011;17335;50.720;7.452;2023-07-09T12:08:50;5.40;;;3.03;;
30553;SDS011;17335;50.720;7.452;2023-07-09T12:13:52;5.75;;;2.88;;
30553;SDS011;17335;50.720;7.452;2023-07-09T12:18:49;6.10;;;2.90;;
30553;SDS011;17335;50.720;7.452;2023-07-09T12:21:16;5.80;;;2.67;;
30553;SDS011;17335;50.720;7.452;2023-07-09T12:23:44;5.47;;;3.17;;
30553;SDS011;17335;50.720;7.452;2023-07-09T12:26:13;4.72;;;2.90;;
30553;SDS011;17335;50.720;7.452;2023-07-09T12:28:41;5.88;;;2.85;;
30553;SDS011;17335;50.720;7.452;2023-07-09T12:31:14;6.40;;;3.35;;
30553;SDS011;17335;50.720;7.452;2023-07-09T12:33:49;6.32;;;2.75;;
30553;SDS011;17335;50.720;7.452;2023-07-09T12:36:16;6.43;;;2.75;;
30553;SDS011;17335;50.720;7.452;2023-07-09T12:38:46;14.82;;;3.33;;
30553;SDS011;17335;50.720;7.452;2023-07-09T12:44:13;5.40;;;3.17;;
30553;SDS011;17335;50.720;7.452;2023-07-09T12:46:44;12.50;;;3.05;;
30553;SDS011;17335;50.720;7.452;2023-07-09T12:49:20;6.80;;;3.10;;
30553;SDS011;17335;50.720;7.452;2023-07-09T12:51:47;11.88;;;3.17;;
30553;SDS011;17335;50.720;7.452;2023-07-09T12:54:15;5.47;;;2.80;;
30553;SDS011;17335;50.720;7.452;2023-07-09T12:56:44;5.18;;;2.80;;
30553;SDS011;17335;50.720;7.452;2023-07-09T13:02:06;7.20;;;2.97;;
30553;SDS011;17335;50.720;7.452;2023-07-09T13:04:38;5.97;;;3.22;;
30553;SDS011;17335;50.720;7.452;2023-07-09T13:07:23;5.65;;;3.03;;
30553;SDS011;17335;50.720;7.452;2023-07-09T13:09:53;5.07;;;3.08;;
30553;SDS011;17335;50.720;7.452;2023-07-09T13:12:31;5.50;;;3.38;;
30553;SDS011;17335;50.720;7.452;2023-07-09T13:14:59;8.25;;;3.63;;
30553;SDS011;17335;50.720;7.452;2023-07-09T13:17:30;9.35;;;3.75;;
30553;SDS011;17335;50.720;7.452;2023-07-09T13:19:58;6.80;;;3.70;;
30553;SDS011;17335;50.720;7.452;2023-07-09T13:22:27;8.15;;;3.40;;
30553;SDS011;17335;50.720;7.452;2023-07-09T13:24:54;7.38;;;3.00;;
30553;SDS011;17335;50.720;7.452;2023-07-09T13:27:21;9.63;;;3.40;;
30553;SDS011;17335;50.720;7.452;2023-07-09T13:29:49;8.38;;;3.45;;
30553;SDS011;17335;50.720;7.452;2023-07-09T13:32:16;10.98;;;3.78;;
30553;SDS011;17335;50.720;7.452;2023-07-09T13:34:43;7.40;;;3.17;;
30553;SDS011;17335;50.720;7.452;2023-07-09T13:37:11;7.00;;;3.97;;
30553;SDS011;17335;50.720;7.452;2023-07-09T13:39:39;7.18;;;3.70;;
30553;SDS011;17335;50.720;7.452;2023-07-09T13:42:10;6.40;;;3.33;;
30553;SDS011;17335;50.720;7.452;2023-07-09T13:44:40;8.00;;;3.75;;
30553;SDS011;17335;50.720;7.452;2023-07-09T13:47:10;9.50;;;3.85;;
30553;SDS011;17335;50.720;7.452;2023-07-09T13:49:39;5.65;;;3.60;;
30553;SDS011;17335;50.720;7.452;2023-07-09T13:52:08;7.22;;;3.63;;
30553;SDS011;17335;50.720;7.452;2023-07-09T13:54:41;6.60;;;3.42;;
30553;SDS011;17335;50.720;7.452;2023-07-09T13:57:11;8.50;;;3.28;;
30553;SDS011;17335;50.720;7.452;2023-07-09T13:59:40;13.30;;;3.70;;
30553;SDS011;17335;50.720;7.452;2023-07-09T14:02:18;7.30;;;3.58;;
30553;SDS011;17335;50.720;7.452;2023-07-09T14:04:50;9.82;;;4.07;;
30553;SDS011;17335;50.720;7.452;2023-07-09T14:07:27;8.68;;;3.60;;
30553;SDS011;17335;50.720;7.452;2023-07-09T14:10:00;9.88;;;3.47;;
30553;SDS011;17335;50.720;7.452;2023-07-09T14:12:27;7.35;;;3.55;;
30553;SDS011;17335;50.720;7.452;2023-07-09T14:14:56;6.82;;;3.25;;
30553;SDS011;17335;50.720;7.452;2023-07-09T14:17:25;6.63;;;3.65;;
30553;SDS011;17335;50.720;7.452;2023-07-09T14:19:52;8.25;;;3.42;;
30553;SDS011;17335;50.720;7.452;2023-07-09T14:22:28;7.70;;;3.40;;
30553;SDS011;17335;50.720;7.452;2023-07-09T14:25:03;8.38;;;3.25;;
30553;SDS011;17335;50.720;7.452;2023-07-09T14:27:31;7.60;;;3.88;;
30553;SDS011;17335;50.720;7.452;2023-07-09T14:29:59;5.10;;;2.95;;
30553;SDS011;17335;50.720;7.452;2023-07-09T14:32:33;6.35;;;3.38;;
30553;SDS011;17335;50.720;7.452;2023-07-09T14:35:09;6.10;;;3.03;;
30553;SDS011;17335;50.720;7.452;2023-07-09T14:37:55;8.02;;;3.00;;
30553;SDS011;17335;50.720;7.452;2023-07-09T14:40:22;5.60;;;3.22;;
30553;SDS011;17335;50.720;7.452;2023-07-09T14:42:49;6.18;;;3.20;;
30553;SDS011;17335;50.720;7.452;2023-07-09T14:45:17;5.57;;;3.17;;
30553;SDS011;17335;50.720;7.452;2023-07-09T14:47:50;5.43;;;2.83;;
30553;SDS011;17335;50.720;7.452;2023-07-09T14:50:19;6.93;;;3.50;;
30553;SDS011;17335;50.720;7.452;2023-07-09T14:52:46;8.85;;;3.15;;
30553;SDS011;17335;50.720;7.452;2023-07-09T14:55:15;8.38;;;3.83;;
30553;SDS011;17335;50.720;7.452;2023-07-09T14:57:44;9.52;;;3.53;;
30553;SDS011;17335;50.720;7.452;2023-07-09T15:00:16;7.00;;;3.13;;
30553;SDS011;17335;50.720;7.452;2023-07-09T15:02:48;7.65;;;3.55;;
30553;SDS011;17335;50.720;7.452;2023-07-09T15:05:18;7.32;;;3.72;;
30553;SDS011;17335;50.720;7.452;2023-07-09T15:07:50;8.70;;;3.38;;
30553;SDS011;17335;50.720;7.452;2023-07-09T15:10:18;10.73;;;3.28;;
30553;SDS011;17335;50.720;7.452;2023-07-09T15:12:50;11.90;;;3.67;;
30553;SDS011;17335;50.720;7.452;2023-07-09T15:15:22;10.05;;;3.90;;
30553;SDS011;17335;50.720;7.452;2023-07-09T15:17:51;10.53;;;4.20;;
30553;SDS011;17335;50.720;7.452;2023-07-09T15:20:19;10.45;;;3.83;;
30553;SDS011;17335;50.720;7.452;2023-07-09T15:22:49;8.50;;;3.65;;
30553;SDS011;17335;50.720;7.452;2023-07-09T15:25:19;6.95;;;3.67;;
30553;SDS011;17335;50.720;7.452;2023-07-09T15:27:47;10.82;;;3.53;;
30553;SDS011;17335;50.720;7.452;2023-07-09T15:30:19;9.20;;;4.32;;
30553;SDS011;17335;50.720;7.452;2023-07-09T15:32:49;9.88;;;4.72;;
30553;SDS011;17335;50.720;7.452;2023-07-09T15:35:19;10.73;;;4.40;;
30553;SDS011;17335;50.720;7.452;2023-07-09T15:37:46;9.57;;;4.68;;
30553;SDS011;17335;50.720;7.452;2023-07-09T15:40:25;9.85;;;4.82;;
30553;SDS011;17335;50.720;7.452;2023-07-09T15:43:06;9.43;;;4.55;;
30553;SDS011;17335;50.720;7.452;2023-07-09T15:45:37;9.38;;;4.32;;
30553;SDS011;17335;50.720;7.452;2023-07-09T15:48:18;10.30;;;4.95;;
30553;SDS011;17335;50.720;7.452;2023-07-09T15:50:48;11.45;;;4.80;;
30553;SDS011;17335;50.720;7.452;2023-07-09T15:53:15;13.77;;;5.70;;
30553;SDS011;17335;50.720;7.452;2023-07-09T15:55:41;17.30;;;4.95;;
30553;SDS011;17335;50.720;7.452;2023-07-09T15:58:14;11.75;;;5.80;;
30553;SDS011;17335;50.720;7.452;2023-07-09T16:00:44;12.38;;;4.78;;